Time;durP1;ratioP1;P1;durP2;ratioP2;P2;SDS_P1;SDS_P2;PMS_P1;PMS_P2;Temp;Humidity;BMP_temperature;BMP_pressure;BME280_temperature;BME280_humidity;BME280_pressure;Samples;Min_cycle;Max_cycle;Signal;HPM_P1;HPM_P2
2023/10/18 00:01:49;;;;;;;4.22;1.83;;;;;;;;;;10411382;28;20045;-61
2023/10/18 00:06:54;;;;;;;6.85;2.30;;;;;;;;;;10410192;28;20278;-60
2023/10/18 00:11:54;;;;;;;3.53;2.00;;;;;;;;;;10409991;28;20496;-60
2023/10/18 00:16:55;;;;;;;6.07;2.22;;;;;;;;;;10408974;28;20045;-60
2023/10/18 00:21:56;;;;;;;5.80;1.95;;;;;;;;;;10406390;28;20087;-61
2023/10/18 00:26:56;;;;;;;6.22;2.00;;;;;;;;;;10409250;28;20048;-60
2023/10/18 00:31:59;;;;;;;4.45;2.03;;;;;;;;;;10407362;28;20037;-60
2023/10/18 00:36:59;;;;;;;3.40;2.20;;;;;;;;;;10411589;28;20038;-60
2023/10/18 00:47:19;;;;;;;2.20;1.80;;;;;;;;;;10410837;28;20049;-59
2023/10/18 00:52:23;;;;;;;3.38;2.08;;;;;;;;;;10409424;28;20021;-60
2023/10/18 00:57:25;;;;;;;2.47;2.00;;;;;;;;;;10410547;28;20033;-61
2023/10/18 01:02:28;;;;;;;3.17;1.90;;;;;;;;;;10398429;28;20076;-61
2023/10/18 01:07:28;;;;;;;3.53;2.05;;;;;;;;;;10392611;28;20030;-62
2023/10/18 01:12:29;;;;;;;7.97;2.17;;;;;;;;;;10400900;28;20424;-63
2023/10/18 01:17:33;;;;;;;4.28;2.35;;;;;;;;;;10409825;28;20439;-63
2023/10/18 01:22:37;;;;;;;2.97;2.08;;;;;;;;;;10403799;28;20142;-63
2023/10/18 01:27:38;;;;;;;3.22;1.80;;;;;;;;;;10411274;28;20087;-63
2023/10/18 01:32:38;;;;;;;2.95;2.28;;;;;;;;;;10403797;28;20469;-63
2023/10/18 01:37:39;;;;;;;5.32;1.90;;;;;;;;;;10409086;28;20029;-63
2023/10/18 01:42:40;;;;;;;1.60;1.50;;;;;;;;;;10398812;28;20180;-63
2023/10/18 01:47:40;;;;;;;2.83;1.80;;;;;;;;;;10408852;28;20497;-63
2023/10/18 01:52:42;;;;;;;4.18;2.40;;;;;;;;;;10401280;28;20366;-60
2023/10/18 01:57:44;;;;;;;2.35;1.63;;;;;;;;;;10408334;28;20029;-61
2023/10/18 02:02:48;;;;;;;8.82;2.03;;;;;;;;;;10407343;28;20428;-60
2023/10/18 02:07:48;;;;;;;3.67;1.95;;;;;;;;;;10407190;28;20029;-60
2023/10/18 02:12:50;;;;;;;1.90;1.65;;;;;;;;;;10404102;28;20029;-60
2023/10/18 02:17:56;;;;;;;2.33;1.48;;;;;;;;;;10405582;28;20033;-61
2023/10/18 02:23:00;;;;;;;2.88;1.70;;;;;;;;;;10407376;28;20429;-61
2023/10/18 02:28:07;;;;;;;7.10;1.67;;;;;;;;;;10398472;28;20041;-60
2023/10/18 02:33:08;;;;;;;2.65;1.77;;;;;;;;;;10406674;28;20477;-60
2023/10/18 02:38:09;;;;;;;6.50;1.80;;;;;;;;;;10400499;28;20044;-61
2023/10/18 02:43:14;;;;;;;1.98;1.75;;;;;;;;;;10407442;28;20172;-62
2023/10/18 02:48:22;;;;;;;2.55;1.60;;;;;;;;;;10398545;28;20041;-63
2023/10/18 02:53:23;;;;;;;5.37;1.67;;;;;;;;;;10406483;28;20029;-61
2023/10/18 02:58:32;;;;;;;3.50;1.67;;;;;;;;;;10405790;28;20037;-62
2023/10/18 03:03:33;;;;;;;1.70;1.60;;;;;;;;;;10406996;28;20017;-62
2023/10/18 03:08:34;;;;;;;1.95;1.45;;;;;;;;;;10395268;28;20385;-61
2023/10/18 03:13:37;;;;;;;1.80;1.50;;;;;;;;;;10406004;28;20033;-62
2023/10/18 03:18:38;;;;;;;2.83;1.65;;;;;;;;;;10406131;28;20064;-62
2023/10/18 03:23:45;;;;;;;2.65;1.70;;;;;;;;;;10389743;28;20056;-60
2023/10/18 03:28:46;;;;;;;2.63;1.70;;;;;;;;;;10404699;28;20458;-60
2023/10/18 03:33:52;;;;;;;1.75;1.60;;;;;;;;;;10405700;28;20038;-60
2023/10/18 03:44:20;;;;;;;2.65;1.35;;;;;;;;;;10404307;28;20285;-60
2023/10/18 03:49:31;;;;;;;2.15;1.63;;;;;;;;;;10385124;28;20046;-61
2023/10/18 03:54:43;;;;;;;1.48;1.38;;;;;;;;;;10404966;28;20029;-61
2023/10/18 03:59:45;;;;;;;3.45;1.40;;;;;;;;;;10380521;28;20087;-62
2023/10/18 04:04:48;;;;;;;1.45;1.35;;;;;;;;;;10404703;28;20040;-62
2023/10/18 04:09:54;;;;;;;2.97;1.55;;;;;;;;;;10403153;28;20068;-62
2023/10/18 04:14:58;;;;;;;1.50;1.40;;;;;;;;;;10393465;28;20096;-63
2023/10/18 04:20:01;;;;;;;1.40;1.30;;;;;;;;;;10395639;28;20441;-61
2023/10/18 04:25:08;;;;;;;3.33;1.58;;;;;;;;;;10404244;28;20033;-62
2023/10/18 04:30:16;;;;;;;1.95;1.48;;;;;;;;;;10402951;28;20033;-62
2023/10/18 04:35:25;;;;;;;1.77;1.65;;;;;;;;;;10411961;28;20041;-62
2023/10/18 04:40:26;;;;;;;2.38;1.60;;;;;;;;;;10412374;28;20056;-60
2023/10/18 04:45:29;;;;;;;2.58;1.60;;;;;;;;;;10408806;28;20392;-63
2023/10/18 04:50:32;;;;;;;1.58;1.48;;;;;;;;;;10411476;28;20180;-60
2023/10/18 04:55:41;;;;;;;1.95;1.17;;;;;;;;;;10407500;28;20042;-62
2023/10/18 05:00:56;;;;;;;1.73;1.20;;;;;;;;;;10403887;28;20029;-62
2023/10/18 05:05:57;;;;;;;2.15;1.30;;;;;;;;;;10411128;28;20034;-59
2023/10/18 05:16:17;;;;;;;1.55;1.30;;;;;;;;;;10407787;28;20115;-62
2023/10/18 05:21:20;;;;;;;1.85;1.50;;;;;;;;;;10404177;28;20021;-62
2023/10/18 05:26:24;;;;;;;1.95;1.40;;;;;;;;;;10409136;28;20028;-62
2023/10/18 05:41:51;;;;;;;1.50;1.40;;;;;;;;;;10408426;28;20025;-61
2023/10/18 05:46:51;;;;;;;1.58;1.40;;;;;;;;;;10407937;28;20032;-62
2023/10/18 05:52:15;;;;;;;1.45;1.33;;;;;;;;;;10408570;28;20045;-61
2023/10/18 05:57:19;;;;;;;2.15;1.40;;;;;;;;;;10399507;28;20098;-61
2023/10/18 06:02:25;;;;;;;2.97;1.40;;;;;;;;;;10400747;28;20038;-62
2023/10/18 06:07:26;;;;;;;2.30;1.52;;;;;;;;;;10393310;28;20636;-62
2023/10/18 06:12:30;;;;;;;1.38;1.20;;;;;;;;;;10396429;28;20511;-60
2023/10/18 06:18:05;;;;;;;2.70;1.55;;;;;;;;;;10402246;28;20041;-60
2023/10/18 06:23:08;;;;;;;1.40;1.20;;;;;;;;;;10394278;28;20044;-60
2023/10/18 06:28:09;;;;;;;2.40;1.50;;;;;;;;;;10407652;28;20477;-59
2023/10/18 06:33:12;;;;;;;2.10;1.90;;;;;;;;;;10407505;28;20030;-60
2023/10/18 06:38:17;;;;;;;2.28;1.20;;;;;;;;;;10408022;28;20498;-60
2023/10/18 06:43:20;;;;;;;18.92;1.77;;;;;;;;;;10405129;28;20029;-58
2023/10/18 06:48:28;;;;;;;2.85;1.85;;;;;;;;;;10405843;28;20477;-58
2023/10/18 06:53:29;;;;;;;15.68;1.90;;;;;;;;;;10396250;28;21219;-58
2023/10/18 07:03:37;;;;;;;4.13;2.20;;;;;;;;;;10399961;28;20014;-61
2023/10/18 07:08:40;;;;;;;4.18;2.38;;;;;;;;;;10396589;28;20033;-59
2023/10/18 07:13:42;;;;;;;4.55;2.13;;;;;;;;;;10385942;28;20033;-59
2023/10/18 07:18:44;;;;;;;5.20;1.85;;;;;;;;;;10403632;28;20034;-60
2023/10/18 07:23:54;;;;;;;3.08;1.88;;;;;;;;;;10402899;28;20053;-59
2023/10/18 07:28:55;;;;;;;4.15;1.90;;;;;;;;;;10399381;28;20401;-61
2023/10/18 07:33:56;;;;;;;5.70;2.53;;;;;;;;;;10403797;28;20038;-63
2023/10/18 07:38:56;;;;;;;8.80;2.35;;;;;;;;;;10399403;28;20472;-64
2023/10/18 07:43:57;;;;;;;6.95;2.70;;;;;;;;;;10399551;28;20346;-63
2023/10/18 07:49:04;;;;;;;4.32;2.63;;;;;;;;;;10386514;28;20042;-66
2023/10/18 07:54:05;;;;;;;5.28;2.20;;;;;;;;;;10403186;28;20080;-65
2023/10/18 08:04:27;;;;;;;5.70;2.03;;;;;;;;;;10396727;28;20030;-64
2023/10/18 08:09:30;;;;;;;7.15;2.30;;;;;;;;;;10400810;28;20112;-64
2023/10/18 08:14:35;;;;;;;6.00;2.67;;;;;;;;;;10404029;28;20026;-63
2023/10/18 08:19:55;;;;;;;8.63;2.40;;;;;;;;;;10407179;28;20081;-63
2023/10/18 08:24:56;;;;;;;5.07;2.40;;;;;;;;;;10401299;28;20045;-64
2023/10/18 08:30:06;;;;;;;5.00;2.40;;;;;;;;;;10407084;28;20392;-65
2023/10/18 08:35:08;;;;;;;5.63;2.63;;;;;;;;;;10407251;28;20253;-62
2023/10/18 08:40:27;;;;;;;7.05;2.58;;;;;;;;;;10402218;28;20053;-60
2023/10/18 08:45:35;;;;;;;5.85;2.55;;;;;;;;;;10399808;28;20196;-63
2023/10/18 08:50:39;;;;;;;7.28;2.53;;;;;;;;;;10398049;28;20568;-64
2023/10/18 08:55:45;;;;;;;6.07;2.40;;;;;;;;;;10398084;28;20358;-64
2023/10/18 09:05:49;;;;;;;7.70;2.50;;;;;;;;;;10405670;28;20186;-62
2023/10/18 09:10:54;;;;;;;6.25;2.33;;;;;;;;;;10405541;28;20029;-65
2023/10/18 09:20:56;;;;;;;4.35;2.03;;;;;;;;;;10399467;28;20497;-64
2023/10/18 09:31:22;;;;;;;6.93;2.53;;;;;;;;;;10376719;28;20026;-63
2023/10/18 09:36:23;;;;;;;10.93;2.33;;;;;;;;;;10384427;28;20044;-63
2023/10/18 09:41:30;;;;;;;4.00;2.38;;;;;;;;;;10405378;28;20033;-62
2023/10/18 09:46:32;;;;;;;4.13;2.20;;;;;;;;;;10396271;28;20079;-65
2023/10/18 09:51:34;;;;;;;4.03;2.33;;;;;;;;;;10393025;28;20048;-63
2023/10/18 09:56:35;;;;;;;3.25;2.10;;;;;;;;;;10398978;28;20524;-63
2023/10/18 10:06:47;;;;;;;10.93;2.87;;;;;;;;;;10393015;28;20398;-64
2023/10/18 10:11:48;;;;;;;6.15;2.78;;;;;;;;;;10378647;28;20022;-68
2023/10/18 10:17:08;;;;;;;10.00;3.38;;;;;;;;;;10399359;28;20026;-62
2023/10/18 10:22:12;;;;;;;4.90;2.90;;;;;;;;;;10388179;28;20424;-61
2023/10/18 10:27:27;;;;;;;4.28;3.10;;;;;;;;;;10385914;28;20025;-67
2023/10/18 10:32:28;;;;;;;8.93;3.40;;;;;;;;;;10389790;28;20038;-64
2023/10/18 10:37:31;;;;;;;5.13;2.97;;;;;;;;;;10392160;28;20099;-64
2023/10/18 10:42:44;;;;;;;5.85;3.00;;;;;;;;;;10387600;28;20547;-66
2023/10/18 10:47:45;;;;;;;10.25;3.40;;;;;;;;;;10392540;28;20052;-67
2023/10/18 10:52:46;;;;;;;6.57;3.42;;;;;;;;;;10391765;28;20124;-63
2023/10/18 10:57:49;;;;;;;21.95;3.10;;;;;;;;;;10389421;28;20029;-65
2023/10/18 11:02:54;;;;;;;8.63;3.42;;;;;;;;;;10375450;28;20037;-66
2023/10/18 11:07:57;;;;;;;7.15;2.78;;;;;;;;;;10399429;28;20095;-64
2023/10/18 11:12:59;;;;;;;13.75;3.40;;;;;;;;;;10388622;28;20567;-67
2023/10/18 11:18:09;;;;;;;7.25;3.15;;;;;;;;;;10388412;28;20025;-64
2023/10/18 11:23:10;;;;;;;5.43;2.72;;;;;;;;;;10378889;28;20037;-65
2023/10/18 11:28:28;;;;;;;10.13;2.80;;;;;;;;;;10391724;28;20543;-65
2023/10/18 11:33:46;;;;;;;8.30;2.95;;;;;;;;;;10389697;28;20021;-63
2023/10/18 11:44:36;;;;;;;4.63;2.63;;;;;;;;;;10379570;28;20096;-65
2023/10/18 11:49:42;;;;;;;8.10;2.80;;;;;;;;;;10391429;28;20579;-64
2023/10/18 11:54:44;;;;;;;7.15;2.40;;;;;;;;;;10398277;28;20098;-64
2023/10/18 11:59:56;;;;;;;6.30;2.47;;;;;;;;;;10397383;28;20029;-63
2023/10/18 12:04:57;;;;;;;4.20;2.53;;;;;;;;;;10392559;28;20038;-63
2023/10/18 12:10:01;;;;;;;3.30;2.33;;;;;;;;;;10401968;28;20038;-64
2023/10/18 12:15:06;;;;;;;4.25;2.80;;;;;;;;;;10394503;28;20033;-64
2023/10/18 12:20:08;;;;;;;2.30;2.00;;;;;;;;;;10393207;28;20491;-64
2023/10/18 12:25:09;;;;;;;5.05;2.42;;;;;;;;;;10391272;28;20079;-64
2023/10/18 12:30:55;;;;;;;4.55;2.40;;;;;;;;;;10402116;28;20464;-64
2023/10/18 12:35:34;;;;;;;7.13;2.78;;;;;;;;;;10389787;28;20121;-62
2023/10/18 12:40:41;;;;;;;3.85;2.40;;;;;;;;;;10403399;28;20025;-64
2023/10/18 12:45:45;;;;;;;3.35;2.22;;;;;;;;;;10405910;28;20033;-63
2023/10/18 12:50:46;;;;;;;3.58;2.50;;;;;;;;;;10404799;28;20041;-64
2023/10/18 12:55:46;;;;;;;5.50;2.35;;;;;;;;;;10392682;28;20304;-64
2023/10/18 13:00:53;;;;;;;7.10;2.65;;;;;;;;;;10396389;28;20377;-60
2023/10/18 13:05:54;;;;;;;9.05;2.90;;;;;;;;;;10401649;28;20034;-63
2023/10/18 13:16:04;;;;;;;8.57;2.80;;;;;;;;;;10401308;28;20042;-64
2023/10/18 13:21:11;;;;;;;8.55;2.13;;;;;;;;;;10396694;28;20025;-64
2023/10/18 13:26:18;;;;;;;6.35;2.80;;;;;;;;;;10379982;28;20026;-63
2023/10/18 13:31:22;;;;;;;3.58;2.55;;;;;;;;;;10391028;28;20060;-64
2023/10/18 13:36:23;;;;;;;4.95;2.45;;;;;;;;;;10406670;28;20120;-62
2023/10/18 13:41:24;;;;;;;6.10;2.28;;;;;;;;;;10391835;28;20500;-64
2023/10/18 13:46:27;;;;;;;5.55;2.60;;;;;;;;;;10398409;28;20645;-64
2023/10/18 13:51:31;;;;;;;5.25;2.45;;;;;;;;;;10400137;28;20042;-61
2023/10/18 13:56:33;;;;;;;7.95;2.58;;;;;;;;;;10402814;28;20076;-63
2023/10/18 14:01:34;;;;;;;12.80;2.97;;;;;;;;;;10398467;28;20045;-64
2023/10/18 14:06:35;;;;;;;11.55;2.97;;;;;;;;;;10399179;28;20033;-64
2023/10/18 14:11:39;;;;;;;10.48;2.97;;;;;;;;;;10404130;28;20492;-64
2023/10/18 14:16:40;;;;;;;6.22;2.55;;;;;;;;;;10399352;28;20071;-61
2023/10/18 14:21:42;;;;;;;23.80;2.97;;;;;;;;;;10401358;28;20064;-60
2023/10/18 14:26:43;;;;;;;9.80;2.75;;;;;;;;;;10395479;28;20121;-61
2023/10/18 14:31:44;;;;;;;6.20;2.78;;;;;;;;;;10396876;28;20493;-61
2023/10/18 14:36:50;;;;;;;10.13;3.15;;;;;;;;;;10395273;28;20072;-65
2023/10/18 14:41:50;;;;;;;12.52;3.10;;;;;;;;;;10395368;28;20052;-67
2023/10/18 14:46:52;;;;;;;9.63;2.85;;;;;;;;;;10388438;28;20036;-68
2023/10/18 14:51:52;;;;;;;14.75;3.08;;;;;;;;;;10391517;28;20492;-68
2023/10/18 14:56:53;;;;;;;11.30;2.95;;;;;;;;;;10399992;28;20048;-60
2023/10/18 15:01:54;;;;;;;11.55;3.10;;;;;;;;;;10399487;28;20034;-61
2023/10/18 15:06:55;;;;;;;9.82;3.10;;;;;;;;;;10398908;28;20033;-65
2023/10/18 15:11:55;;;;;;;8.23;2.78;;;;;;;;;;10397027;28;20030;-64
2023/10/18 15:16:56;;;;;;;9.27;2.58;;;;;;;;;;10390505;28;20030;-67
2023/10/18 15:21:57;;;;;;;10.07;2.70;;;;;;;;;;10383087;28;20025;-67
2023/10/18 15:26:57;;;;;;;20.73;2.53;;;;;;;;;;10396363;28;20167;-66
2023/10/18 15:31:58;;;;;;;6.55;3.28;;;;;;;;;;10391256;28;20424;-61
2023/10/18 15:37:01;;;;;;;5.53;2.60;;;;;;;;;;10396066;28;20374;-61
2023/10/18 15:42:01;;;;;;;8.95;2.80;;;;;;;;;;10391087;28;20029;-62
2023/10/18 15:47:03;;;;;;;8.75;2.80;;;;;;;;;;10395738;28;20497;-61
2023/10/18 15:52:06;;;;;;;5.13;2.30;;;;;;;;;;10385394;28;20037;-63
2023/10/18 15:57:07;;;;;;;27.10;3.13;;;;;;;;;;10389981;28;20403;-62
2023/10/18 16:02:11;;;;;;;7.20;2.67;;;;;;;;;;10370852;28;20045;-61
2023/10/18 16:07:12;;;;;;;10.38;2.67;;;;;;;;;;10389010;28;20032;-59
2023/10/18 16:12:15;;;;;;;6.97;2.40;;;;;;;;;;10394009;28;20036;-64
2023/10/18 16:17:15;;;;;;;6.47;2.60;;;;;;;;;;10390200;28;20034;-62
2023/10/18 16:22:16;;;;;;;12.57;2.78;;;;;;;;;;10391911;28;20030;-65
2023/10/18 16:27:16;;;;;;;4.75;2.22;;;;;;;;;;10402554;28;20029;-62
2023/10/18 16:32:17;;;;;;;7.63;2.50;;;;;;;;;;10388633;28;20026;-63
2023/10/18 16:37:18;;;;;;;3.60;2.47;;;;;;;;;;10399219;28;20132;-63
2023/10/18 16:42:18;;;;;;;4.82;2.60;;;;;;;;;;10390582;28;20164;-66
2023/10/18 16:47:21;;;;;;;3.63;2.25;;;;;;;;;;10404892;28;20026;-63
2023/10/18 16:52:21;;;;;;;4.72;2.03;;;;;;;;;;10403761;28;20049;-65
2023/10/18 16:57:22;;;;;;;4.03;2.45;;;;;;;;;;10399834;28;20120;-64
2023/10/18 17:02:22;;;;;;;7.47;2.30;;;;;;;;;;10400629;28;20451;-63
2023/10/18 17:07:23;;;;;;;11.32;2.40;;;;;;;;;;10403990;28;20397;-62
2023/10/18 17:12:24;;;;;;;4.78;2.30;;;;;;;;;;10401508;28;20481;-63
2023/10/18 17:17:24;;;;;;;13.15;2.55;;;;;;;;;;10393717;28;20041;-60
2023/10/18 17:22:25;;;;;;;9.70;2.65;;;;;;;;;;10399457;28;20639;-59
2023/10/18 17:27:26;;;;;;;19.60;2.80;;;;;;;;;;10395343;28;20025;-62
2023/10/18 17:32:28;;;;;;;6.63;2.75;;;;;;;;;;10393035;28;20068;-62
2023/10/18 17:37:29;;;;;;;7.07;2.33;;;;;;;;;;10423739;22;20049;-63
2023/10/18 17:42:29;;;;;;;8.30;2.78;;;;;;;;;;10414108;28;20487;-63
2023/10/18 17:47:31;;;;;;;6.80;2.65;;;;;;;;;;10404877;28;20032;-63
2023/10/18 17:52:31;;;;;;;5.88;2.60;;;;;;;;;;10419197;28;20021;-63
2023/10/18 17:57:34;;;;;;;9.82;2.33;;;;;;;;;;10408665;28;20592;-63
2023/10/18 18:02:43;;;;;;;5.47;2.22;;;;;;;;;;10398728;28;20083;-63
2023/10/18 18:07:44;;;;;;;7.75;2.50;;;;;;;;;;10390965;28;20761;-63
2023/10/18 18:12:50;;;;;;;6.60;2.30;;;;;;;;;;10404346;28;20392;-63
2023/10/18 18:17:51;;;;;;;8.98;2.30;;;;;;;;;;10386867;28;20399;-63
2023/10/18 18:22:51;;;;;;;5.70;2.53;;;;;;;;;;10403579;28;20028;-62
2023/10/18 18:27:52;;;;;;;3.92;2.25;;;;;;;;;;10407164;28;20113;-63
2023/10/18 18:32:54;;;;;;;8.98;2.30;;;;;;;;;;10397238;28;20034;-61
2023/10/18 18:37:55;;;;;;;4.10;2.30;;;;;;;;;;10364337;28;20074;-63
2023/10/18 18:42:56;;;;;;;5.22;1.90;;;;;;;;;;10395078;28;20053;-62
2023/10/18 18:47:58;;;;;;;5.80;2.60;;;;;;;;;;10399609;28;20544;-62
2023/10/18 18:53:00;;;;;;;4.88;2.17;;;;;;;;;;10414856;28;20036;-62
2023/10/18 18:58:01;;;;;;;14.57;2.85;;;;;;;;;;10399767;28;20029;-62
2023/10/18 19:03:03;;;;;;;21.60;3.45;;;;;;;;;;10391553;28;20037;-62
2023/10/18 19:08:04;;;;;;;25.48;3.70;;;;;;;;;;10403427;28;20477;-62
2023/10/18 19:13:05;;;;;;;16.33;3.45;;;;;;;;;;10398427;28;20028;-62
2023/10/18 19:18:06;;;;;;;15.38;3.67;;;;;;;;;;10401167;28;20037;-62
2023/10/18 19:23:08;;;;;;;14.43;3.63;;;;;;;;;;10399224;28;20034;-62
2023/10/18 19:28:08;;;;;;;13.70;3.28;;;;;;;;;;10400714;28;20039;-60
2023/10/18 19:33:09;;;;;;;10.68;3.55;;;;;;;;;;10397998;28;20032;-62
2023/10/18 19:38:10;;;;;;;12.63;3.92;;;;;;;;;;10404151;28;20049;-62
2023/10/18 19:43:10;;;;;;;9.57;3.47;;;;;;;;;;10401869;28;20033;-62
2023/10/18 19:48:11;;;;;;;11.98;4.10;;;;;;;;;;10404845;28;20052;-62
2023/10/18 19:53:12;;;;;;;8.32;3.83;;;;;;;;;;10404116;28;20029;-62
2023/10/18 19:58:13;;;;;;;17.75;4.25;;;;;;;;;;10409013;28;20048;-62
2023/10/18 20:03:14;;;;;;;18.83;3.80;;;;;;;;;;10405622;28;20037;-63
2023/10/18 20:08:15;;;;;;;9.02;3.55;;;;;;;;;;10411286;28;20725;-63
2023/10/18 20:13:16;;;;;;;14.80;3.60;;;;;;;;;;10404734;28;20017;-62
2023/10/18 20:18:17;;;;;;;7.47;3.47;;;;;;;;;;10410016;28;20463;-62
2023/10/18 20:23:18;;;;;;;21.77;3.83;;;;;;;;;;10420273;28;20079;-62
2023/10/18 20:28:19;;;;;;;12.32;3.88;;;;;;;;;;10405691;28;20125;-63
2023/10/18 20:33:23;;;;;;;8.20;3.20;;;;;;;;;;10409318;28;20029;-63
2023/10/18 20:38:24;;;;;;;9.85;3.40;;;;;;;;;;10415504;28;20041;-63
2023/10/18 20:43:26;;;;;;;8.48;3.40;;;;;;;;;;10412107;28;20061;-63
2023/10/18 20:48:28;;;;;;;6.70;3.13;;;;;;;;;;10405637;28;20029;-62
2023/10/18 20:53:29;;;;;;;3.70;2.80;;;;;;;;;;10412828;28;20045;-63
2023/10/18 20:58:30;;;;;;;10.98;3.63;;;;;;;;;;10408240;28;20026;-63
2023/10/18 21:03:34;;;;;;;6.95;3.30;;;;;;;;;;10416066;28;20026;-62
2023/10/18 21:08:35;;;;;;;11.95;3.63;;;;;;;;;;10401229;28;20025;-62
2023/10/18 21:13:39;;;;;;;8.80;3.42;;;;;;;;;;10412716;28;20029;-62
2023/10/18 21:18:44;;;;;;;6.78;3.20;;;;;;;;;;10400771;28;20021;-62
2023/10/18 21:23:45;;;;;;;12.30;3.45;;;;;;;;;;10406634;28;20634;-62
2023/10/18 21:28:45;;;;;;;11.35;2.83;;;;;;;;;;10411208;28;20183;-62
2023/10/18 21:33:46;;;;;;;14.55;3.35;;;;;;;;;;10405451;28;20030;-62
2023/10/18 21:38:47;;;;;;;9.68;3.10;;;;;;;;;;10405416;28;20052;-62
2023/10/18 21:43:48;;;;;;;9.85;3.78;;;;;;;;;;10384197;28;20152;-62
2023/10/18 21:48:51;;;;;;;14.82;6.63;;;;;;;;;;10391975;28;20036;-69
2023/10/18 21:53:51;;;;;;;17.98;5.50;;;;;;;;;;10402885;28;20049;-68
2023/10/18 21:58:53;;;;;;;15.57;5.72;;;;;;;;;;10408942;28;20124;-70
2023/10/18 22:04:03;;;;;;;17.75;5.07;;;;;;;;;;10394194;28;20464;-68
2023/10/18 22:09:52;;;;;;;10.98;4.78;;;;;;;;;;10408620;28;20025;-68
2023/10/18 22:14:29;;;;;;;7.00;4.15;;;;;;;;;;10383690;28;20475;-67
2023/10/18 22:19:30;;;;;;;10.57;4.47;;;;;;;;;;10407037;28;20033;-68
2023/10/18 22:24:35;;;;;;;14.98;3.53;;;;;;;;;;10421612;28;20038;-67
2023/10/18 22:29:36;;;;;;;8.30;4.13;;;;;;;;;;10405968;28;20036;-67
2023/10/18 22:34:39;;;;;;;4.75;3.50;;;;;;;;;;10409949;28;20376;-67
2023/10/18 22:39:41;;;;;;;9.35;3.40;;;;;;;;;;10408205;28;20073;-67
2023/10/18 22:45:03;;;;;;;6.03;3.35;;;;;;;;;;10404708;28;20029;-67
2023/10/18 22:55:27;;;;;;;10.52;3.47;;;;;;;;;;10411714;28;20116;-67
2023/10/18 23:00:31;;;;;;;6.15;3.45;;;;;;;;;;10408000;28;20573;-67
2023/10/18 23:05:32;;;;;;;4.00;3.22;;;;;;;;;;10408962;28;20029;-67
2023/10/18 23:15:47;;;;;;;4.88;3.08;;;;;;;;;;10408145;28;20214;-68
2023/10/18 23:20:57;;;;;;;5.68;3.10;;;;;;;;;;10422756;28;20492;-67
2023/10/18 23:31:31;;;;;;;6.90;3.33;;;;;;;;;;10405201;28;20029;-66
2023/10/18 23:36:36;;;;;;;5.03;2.83;;;;;;;;;;10387673;28;20045;-66
2023/10/18 23:41:41;;;;;;;3.88;2.78;;;;;;;;;;10413743;28;20450;-65
2023/10/18 23:57:10;;;;;;;10.88;3.00;;;;;;;;;;10409870;28;20088;-66
